sensor_id;sensor_type;location;lat;lon;timestamp;P1;durP1;ratioP1;P2;durP2;ratioP2
305;SDS011;137;48.578;9.180;2022-10-16T00:00:45;3.73;;;2.60;;
305;SDS011;137;48.578;9.180;2022-10-16T00:03:12;3.10;;;2.10;;
305;SDS011;137;48.578;9.180;2022-10-16T00:05:41;4.13;;;2.50;;
305;SDS011;137;48.578;9.180;2022-10-16T00:08:09;2.97;;;1.70;;
305;SDS011;137;48.578;9.180;2022-10-16T00:10:37;3.57;;;2.00;;
305;SDS011;137;48.578;9.180;2022-10-16T00:13:04;2.40;;;1.90;;
305;SDS011;137;48.578;9.180;2022-10-16T00:15:32;2.00;;;1.63;;
305;SDS011;137;48.578;9.180;2022-10-16T00:18:01;5.50;;;2.17;;
305;SDS011;137;48.578;9.180;2022-10-16T00:20:28;3.07;;;1.60;;
305;SDS011;137;48.578;9.180;2022-10-16T00:22:57;5.70;;;2.00;;
305;SDS011;137;48.578;9.180;2022-10-16T00:25:24;6.67;;;1.47;;
305;SDS011;137;48.578;9.180;2022-10-16T00:27:51;3.50;;;1.30;;
305;SDS011;137;48.578;9.180;2022-10-16T00:30:17;2.23;;;1.77;;
305;SDS011;137;48.578;9.180;2022-10-16T00:32:44;1.70;;;1.50;;
305;SDS011;137;48.578;9.180;2022-10-16T00:35:11;3.43;;;1.50;;
305;SDS011;137;48.578;9.180;2022-10-16T00:37:37;2.57;;;1.83;;
305;SDS011;137;48.578;9.180;2022-10-16T00:40:06;2.07;;;1.60;;
305;SDS011;137;48.578;9.180;2022-10-16T00:42:34;2.97;;;1.70;;
305;SDS011;137;48.578;9.180;2022-10-16T00:45:00;2.00;;;1.57;;
305;SDS011;137;48.578;9.180;2022-10-16T00:47:30;2.77;;;1.93;;
305;SDS011;137;48.578;9.180;2022-10-16T00:50:01;2.53;;;1.60;;
305;SDS011;137;48.578;9.180;2022-10-16T00:52:32;2.50;;;1.80;;
305;SDS011;137;48.578;9.180;2022-10-16T00:55:00;1.90;;;1.70;;
305;SDS011;137;48.578;9.180;2022-10-16T00:57:30;5.40;;;2.00;;
305;SDS011;137;48.578;9.180;2022-10-16T00:59:57;2.80;;;1.70;;
305;SDS011;137;48.578;9.180;2022-10-16T01:02:24;2.00;;;1.67;;
305;SDS011;137;48.578;9.180;2022-10-16T01:04:51;3.33;;;1.67;;
305;SDS011;137;48.578;9.180;2022-10-16T01:07:26;2.70;;;1.87;;
305;SDS011;137;48.578;9.180;2022-10-16T01:10:06;1.80;;;1.70;;
305;SDS011;137;48.578;9.180;2022-10-16T01:12:40;4.70;;;1.40;;
305;SDS011;137;48.578;9.180;2022-10-16T01:15:12;3.10;;;1.70;;
305;SDS011;137;48.578;9.180;2022-10-16T01:17:45;2.50;;;1.40;;
305;SDS011;137;48.578;9.180;2022-10-16T01:20:18;2.20;;;2.00;;
305;SDS011;137;48.578;9.180;2022-10-16T01:22:56;1.70;;;1.27;;
305;SDS011;137;48.578;9.180;2022-10-16T01:25:34;3.93;;;1.57;;
305;SDS011;137;48.578;9.180;2022-10-16T01:28:12;4.20;;;1.57;;
305;SDS011;137;48.578;9.180;2022-10-16T01:30:42;2.17;;;1.43;;
305;SDS011;137;48.578;9.180;2022-10-16T01:33:13;1.63;;;1.20;;
305;SDS011;137;48.578;9.180;2022-10-16T01:35:44;1.70;;;1.50;;
305;SDS011;137;48.578;9.180;2022-10-16T01:38:14;2.23;;;1.40;;
305;SDS011;137;48.578;9.180;2022-10-16T01:40:45;2.60;;;1.27;;
305;SDS011;137;48.578;9.180;2022-10-16T01:43:17;1.70;;;1.10;;
305;SDS011;137;48.578;9.180;2022-10-16T01:45:47;2.00;;;1.50;;
305;SDS011;137;48.578;9.180;2022-10-16T01:48:15;3.37;;;1.50;;
305;SDS011;137;48.578;9.180;2022-10-16T01:50:44;1.70;;;1.30;;
305;SDS011;137;48.578;9.180;2022-10-16T01:53:18;1.50;;;1.40;;
305;SDS011;137;48.578;9.180;2022-10-16T01:55:46;3.03;;;1.47;;
305;SDS011;137;48.578;9.180;2022-10-16T01:58:14;1.50;;;1.20;;
305;SDS011;137;48.578;9.180;2022-10-16T02:00:43;1.60;;;1.33;;
305;SDS011;137;48.578;9.180;2022-10-16T02:03:12;2.80;;;1.40;;
305;SDS011;137;48.578;9.180;2022-10-16T02:05:44;1.80;;;1.40;;
305;SDS011;137;48.578;9.180;2022-10-16T02:08:13;1.80;;;1.40;;
305;SDS011;137;48.578;9.180;2022-10-16T02:10:40;1.43;;;1.20;;
305;SDS011;137;48.578;9.180;2022-10-16T02:13:08;1.40;;;1.30;;
305;SDS011;137;48.578;9.180;2022-10-16T02:15:39;2.00;;;1.30;;
305;SDS011;137;48.578;9.180;2022-10-16T02:18:06;1.57;;;1.40;;
305;SDS011;137;48.578;9.180;2022-10-16T02:20:37;2.60;;;1.50;;
305;SDS011;137;48.578;9.180;2022-10-16T02:23:11;2.93;;;1.10;;
305;SDS011;137;48.578;9.180;2022-10-16T02:25:42;1.93;;;1.47;;
305;SDS011;137;48.578;9.180;2022-10-16T02:28:13;3.10;;;1.90;;
305;SDS011;137;48.578;9.180;2022-10-16T02:30:46;2.13;;;1.70;;
305;SDS011;137;48.578;9.180;2022-10-16T02:33:17;2.57;;;1.53;;
305;SDS011;137;48.578;9.180;2022-10-16T02:35:47;1.60;;;1.50;;
305;SDS011;137;48.578;9.180;2022-10-16T02:38:16;2.53;;;1.70;;
305;SDS011;137;48.578;9.180;2022-10-16T02:40:44;2.17;;;1.60;;
305;SDS011;137;48.578;9.180;2022-10-16T02:43:11;3.70;;;2.07;;
305;SDS011;137;48.578;9.180;2022-10-16T02:45:38;2.13;;;1.83;;
305;SDS011;137;48.578;9.180;2022-10-16T02:48:07;2.10;;;1.60;;
305;SDS011;137;48.578;9.180;2022-10-16T02:50:34;1.67;;;1.53;;
305;SDS011;137;48.578;9.180;2022-10-16T02:53:01;2.73;;;1.93;;
305;SDS011;137;48.578;9.180;2022-10-16T02:55:27;1.93;;;1.70;;
305;SDS011;137;48.578;9.180;2022-10-16T02:57:54;3.33;;;2.00;;
305;SDS011;137;48.578;9.180;2022-10-16T03:00:21;1.50;;;1.33;;
305;SDS011;137;48.578;9.180;2022-10-16T03:02:48;6.00;;;1.53;;
305;SDS011;137;48.578;9.180;2022-10-16T03:05:16;3.67;;;1.30;;
305;SDS011;137;48.578;9.180;2022-10-16T03:07:43;1.50;;;1.40;;
305;SDS011;137;48.578;9.180;2022-10-16T03:10:10;1.63;;;1.53;;
305;SDS011;137;48.578;9.180;2022-10-16T03:12:36;1.80;;;1.50;;
305;SDS011;137;48.578;9.180;2022-10-16T03:15:03;1.80;;;1.47;;
305;SDS011;137;48.578;9.180;2022-10-16T03:17:31;1.50;;;1.33;;
305;SDS011;137;48.578;9.180;2022-10-16T03:19:59;2.27;;;2.00;;
305;SDS011;137;48.578;9.180;2022-10-16T03:22:27;1.40;;;1.10;;
305;SDS011;137;48.578;9.180;2022-10-16T03:24:54;2.57;;;1.50;;
305;SDS011;137;48.578;9.180;2022-10-16T03:27:21;2.60;;;1.50;;
305;SDS011;137;48.578;9.180;2022-10-16T03:29:48;2.00;;;1.40;;
305;SDS011;137;48.578;9.180;2022-10-16T03:32:15;1.30;;;1.20;;
305;SDS011;137;48.578;9.180;2022-10-16T03:34:41;4.10;;;1.20;;
305;SDS011;137;48.578;9.180;2022-10-16T03:37:08;1.70;;;1.43;;
305;SDS011;137;48.578;9.180;2022-10-16T03:39:36;1.83;;;1.37;;
305;SDS011;137;48.578;9.180;2022-10-16T03:42:03;1.67;;;1.10;;
305;SDS011;137;48.578;9.180;2022-10-16T03:44:30;2.90;;;1.10;;
305;SDS011;137;48.578;9.180;2022-10-16T03:46:57;2.43;;;1.30;;
305;SDS011;137;48.578;9.180;2022-10-16T03:49:24;3.07;;;1.33;;
305;SDS011;137;48.578;9.180;2022-10-16T03:51:50;2.97;;;1.63;;
305;SDS011;137;48.578;9.180;2022-10-16T03:54:17;1.83;;;1.43;;
305;SDS011;137;48.578;9.180;2022-10-16T03:56:45;1.87;;;1.27;;
305;SDS011;137;48.578;9.180;2022-10-16T03:59:12;2.60;;;1.50;;
305;SDS011;137;48.578;9.180;2022-10-16T04:01:39;1.50;;;1.20;;
305;SDS011;137;48.578;9.180;2022-10-16T04:04:05;1.87;;;1.23;;
305;SDS011;137;48.578;9.180;2022-10-16T04:06:32;1.70;;;1.60;;
305;SDS011;137;48.578;9.180;2022-10-16T04:08:59;3.83;;;1.87;;
305;SDS011;137;48.578;9.180;2022-10-16T04:11:26;2.10;;;1.30;;
305;SDS011;137;48.578;9.180;2022-10-16T04:13:54;1.60;;;1.50;;
305;SDS011;137;48.578;9.180;2022-10-16T04:16:21;1.80;;;1.17;;
305;SDS011;137;48.578;9.180;2022-10-16T04:18:48;2.33;;;1.30;;
305;SDS011;137;48.578;9.180;2022-10-16T04:21:15;1.40;;;1.20;;
305;SDS011;137;48.578;9.180;2022-10-16T04:23:41;2.23;;;1.20;;
305;SDS011;137;48.578;9.180;2022-10-16T04:26:08;1.97;;;1.40;;
305;SDS011;137;48.578;9.180;2022-10-16T04:28:36;1.77;;;1.30;;
305;SDS011;137;48.578;9.180;2022-10-16T04:31:04;6.70;;;1.70;;
305;SDS011;137;48.578;9.180;2022-10-16T04:33:32;2.03;;;1.50;;
305;SDS011;137;48.578;9.180;2022-10-16T04:35:59;1.93;;;1.07;;
305;SDS011;137;48.578;9.180;2022-10-16T04:38:27;2.30;;;1.43;;
305;SDS011;137;48.578;9.180;2022-10-16T04:40:53;3.90;;;1.70;;
305;SDS011;137;48.578;9.180;2022-10-16T04:43:20;2.40;;;1.63;;
305;SDS011;137;48.578;9.180;2022-10-16T04:45:47;1.37;;;1.17;;
305;SDS011;137;48.578;9.180;2022-10-16T04:48:16;2.10;;;1.70;;
305;SDS011;137;48.578;9.180;2022-10-16T04:50:43;2.53;;;1.40;;
305;SDS011;137;48.578;9.180;2022-10-16T04:53:10;2.00;;;1.30;;
305;SDS011;137;48.578;9.180;2022-10-16T04:55:37;2.30;;;1.30;;
305;SDS011;137;48.578;9.180;2022-10-16T04:58:04;1.50;;;1.30;;
305;SDS011;137;48.578;9.180;2022-10-16T05:00:31;2.33;;;1.20;;
305;SDS011;137;48.578;9.180;2022-10-16T05:02:57;2.03;;;1.40;;
305;SDS011;137;48.578;9.180;2022-10-16T05:05:27;3.00;;;1.70;;
305;SDS011;137;48.578;9.180;2022-10-16T05:07:54;3.57;;;1.30;;
305;SDS011;137;48.578;9.180;2022-10-16T05:10:21;4.40;;;1.70;;
305;SDS011;137;48.578;9.180;2022-10-16T05:12:47;2.27;;;1.30;;
305;SDS011;137;48.578;9.180;2022-10-16T05:15:14;1.63;;;1.37;;
305;SDS011;137;48.578;9.180;2022-10-16T05:17:41;1.30;;;1.20;;
305;SDS011;137;48.578;9.180;2022-10-16T05:20:08;2.60;;;1.30;;
305;SDS011;137;48.578;9.180;2022-10-16T05:22:36;2.17;;;1.33;;
305;SDS011;137;48.578;9.180;2022-10-16T05:25:04;2.10;;;1.13;;
305;SDS011;137;48.578;9.180;2022-10-16T05:27:31;5.73;;;1.60;;
305;SDS011;137;48.578;9.180;2022-10-16T05:29:58;2.53;;;1.33;;
305;SDS011;137;48.578;9.180;2022-10-16T05:32:24;3.97;;;1.33;;
305;SDS011;137;48.578;9.180;2022-10-16T05:34:51;2.10;;;1.20;;
305;SDS011;137;48.578;9.180;2022-10-16T05:37:18;2.13;;;1.30;;
305;SDS011;137;48.578;9.180;2022-10-16T05:39:46;1.40;;;1.13;;
305;SDS011;137;48.578;9.180;2022-10-16T05:42:13;2.00;;;1.13;;
305;SDS011;137;48.578;9.180;2022-10-16T05:44:40;4.17;;;1.30;;
305;SDS011;137;48.578;9.180;2022-10-16T05:47:07;3.50;;;1.37;;
305;SDS011;137;48.578;9.180;2022-10-16T05:49:34;2.90;;;1.37;;
305;SDS011;137;48.578;9.180;2022-10-16T05:52:00;2.30;;;1.33;;
305;SDS011;137;48.578;9.180;2022-10-16T05:54:27;2.50;;;1.60;;
305;SDS011;137;48.578;9.180;2022-10-16T05:56:55;4.23;;;1.20;;
305;SDS011;137;48.578;9.180;2022-10-16T05:59:22;2.93;;;1.70;;
305;SDS011;137;48.578;9.180;2022-10-16T06:01:49;1.53;;;1.00;;
305;SDS011;137;48.578;9.180;2022-10-16T06:04:16;1.60;;;1.40;;
305;SDS011;137;48.578;9.180;2022-10-16T06:06:42;2.33;;;1.60;;
305;SDS011;137;48.578;9.180;2022-10-16T06:09:09;1.70;;;1.40;;
305;SDS011;137;48.578;9.180;2022-10-16T06:11:36;3.83;;;1.53;;
305;SDS011;137;48.578;9.180;2022-10-16T06:14:04;1.30;;;1.10;;
305;SDS011;137;48.578;9.180;2022-10-16T06:16:32;1.87;;;1.20;;
305;SDS011;137;48.578;9.180;2022-10-16T06:19:00;1.80;;;1.30;;
305;SDS011;137;48.578;9.180;2022-10-16T06:21:27;2.23;;;1.27;;
305;SDS011;137;48.578;9.180;2022-10-16T06:23:55;2.73;;;1.33;;
305;SDS011;137;48.578;9.180;2022-10-16T06:26:23;3.60;;;1.57;;
305;SDS011;137;48.578;9.180;2022-10-16T06:28:53;8.30;;;1.40;;
305;SDS011;137;48.578;9.180;2022-10-16T06:31:21;5.43;;;1.20;;
305;SDS011;137;48.578;9.180;2022-10-16T06:33:52;2.53;;;1.30;;
305;SDS011;137;48.578;9.180;2022-10-16T06:36:19;1.50;;;1.40;;
305;SDS011;137;48.578;9.180;2022-10-16T06:38:46;1.90;;;1.53;;
305;SDS011;137;48.578;9.180;2022-10-16T06:41:14;1.57;;;1.43;;
305;SDS011;137;48.578;9.180;2022-10-16T06:43:42;2.43;;;1.30;;
305;SDS011;137;48.578;9.180;2022-10-16T06:46:10;4.27;;;1.90;;
305;SDS011;137;48.578;9.180;2022-10-16T06:48:40;1.97;;;1.77;;
305;SDS011;137;48.578;9.180;2022-10-16T06:51:08;1.37;;;1.27;;
305;SDS011;137;48.578;9.180;2022-10-16T06:53:37;2.50;;;1.33;;
305;SDS011;137;48.578;9.180;2022-10-16T06:56:08;3.07;;;1.40;;
305;SDS011;137;48.578;9.180;2022-10-16T06:58:35;3.20;;;1.33;;
305;SDS011;137;48.578;9.180;2022-10-16T07:01:02;2.37;;;1.53;;
305;SDS011;137;48.578;9.180;2022-10-16T07:03:29;3.67;;;2.00;;
305;SDS011;137;48.578;9.180;2022-10-16T07:06:00;3.93;;;2.20;;
305;SDS011;137;48.578;9.180;2022-10-16T07:08:28;3.80;;;1.73;;
305;SDS011;137;48.578;9.180;2022-10-16T07:11:00;2.90;;;2.40;;
305;SDS011;137;48.578;9.180;2022-10-16T07:13:27;3.10;;;2.80;;
305;SDS011;137;48.578;9.180;2022-10-16T07:15:54;3.70;;;3.40;;
305;SDS011;137;48.578;9.180;2022-10-16T07:18:21;5.00;;;4.17;;
305;SDS011;137;48.578;9.180;2022-10-16T07:20:51;5.40;;;3.87;;
305;SDS011;137;48.578;9.180;2022-10-16T07:23:19;4.63;;;2.93;;
305;SDS011;137;48.578;9.180;2022-10-16T07:25:53;1.93;;;1.83;;
305;SDS011;137;48.578;9.180;2022-10-16T07:28:20;2.83;;;1.80;;
305;SDS011;137;48.578;9.180;2022-10-16T07:30:47;2.30;;;1.53;;
305;SDS011;137;48.578;9.180;2022-10-16T07:33:14;5.23;;;2.17;;
305;SDS011;137;48.578;9.180;2022-10-16T07:35:47;2.37;;;1.90;;
305;SDS011;137;48.578;9.180;2022-10-16T07:38:14;4.83;;;2.30;;
305;SDS011;137;48.578;9.180;2022-10-16T07:40:42;2.90;;;2.23;;
305;SDS011;137;48.578;9.180;2022-10-16T07:43:09;6.80;;;1.90;;
305;SDS011;137;48.578;9.180;2022-10-16T07:45:36;2.33;;;1.60;;
305;SDS011;137;48.578;9.180;2022-10-16T07:48:11;4.83;;;1.83;;
305;SDS011;137;48.578;9.180;2022-10-16T07:50:38;3.00;;;1.40;;
305;SDS011;137;48.578;9.180;2022-10-16T07:53:05;6.83;;;1.63;;
305;SDS011;137;48.578;9.180;2022-10-16T07:55:32;7.33;;;2.20;;
305;SDS011;137;48.578;9.180;2022-10-16T07:58:00;2.57;;;2.37;;
305;SDS011;137;48.578;9.180;2022-10-16T08:00:27;3.10;;;1.70;;
305;SDS011;137;48.578;9.180;2022-10-16T08:02:53;2.63;;;1.57;;
305;SDS011;137;48.578;9.180;2022-10-16T08:05:21;2.40;;;1.93;;
305;SDS011;137;48.578;9.180;2022-10-16T08:07:48;4.10;;;2.97;;
305;SDS011;137;48.578;9.180;2022-10-16T08:10:16;7.33;;;4.83;;
305;SDS011;137;48.578;9.180;2022-10-16T08:12:44;3.63;;;2.50;;
305;SDS011;137;48.578;9.180;2022-10-16T08:15:12;5.40;;;1.90;;
305;SDS011;137;48.578;9.180;2022-10-16T08:17:39;5.33;;;2.40;;
305;SDS011;137;48.578;9.180;2022-10-16T08:20:06;6.87;;;1.70;;
305;SDS011;137;48.578;9.180;2022-10-16T08:22:34;3.23;;;1.80;;
305;SDS011;137;48.578;9.180;2022-10-16T08:25:01;6.17;;;1.77;;
305;SDS011;137;48.578;9.180;2022-10-16T08:27:30;2.07;;;1.63;;
305;SDS011;137;48.578;9.180;2022-10-16T08:29:57;3.33;;;1.50;;
305;SDS011;137;48.578;9.180;2022-10-16T08:32:25;1.70;;;1.57;;
305;SDS011;137;48.578;9.180;2022-10-16T08:34:52;2.73;;;1.60;;
305;SDS011;137;48.578;9.180;2022-10-16T08:37:19;3.33;;;1.40;;
305;SDS011;137;48.578;9.180;2022-10-16T08:39:45;3.63;;;1.20;;
305;SDS011;137;48.578;9.180;2022-10-16T08:42:19;8.27;;;2.03;;
305;SDS011;137;48.578;9.180;2022-10-16T08:45:15;1.60;;;1.50;;
305;SDS011;137;48.578;9.180;2022-10-16T08:47:55;2.10;;;1.70;;
305;SDS011;137;48.578;9.180;2022-10-16T08:50:36;2.20;;;1.70;;
305;SDS011;137;48.578;9.180;2022-10-16T08:53:05;3.00;;;1.80;;
305;SDS011;137;48.578;9.180;2022-10-16T08:55:33;5.17;;;1.57;;
305;SDS011;137;48.578;9.180;2022-10-16T08:58:13;4.73;;;1.77;;
305;SDS011;137;48.578;9.180;2022-10-16T09:00:42;3.20;;;1.30;;
305;SDS011;137;48.578;9.180;2022-10-16T09:03:16;2.50;;;1.23;;
305;SDS011;137;48.578;9.180;2022-10-16T09:05:54;4.03;;;1.60;;
305;SDS011;137;48.578;9.180;2022-10-16T09:08:32;3.43;;;1.50;;
305;SDS011;137;48.578;9.180;2022-10-16T09:11:06;5.83;;;2.07;;
305;SDS011;137;48.578;9.180;2022-10-16T09:13:43;1.73;;;1.17;;
305;SDS011;137;48.578;9.180;2022-10-16T09:16:17;2.80;;;1.70;;
305;SDS011;137;48.578;9.180;2022-10-16T09:18:52;2.63;;;1.30;;
305;SDS011;137;48.578;9.180;2022-10-16T09:21:23;1.70;;;1.33;;
305;SDS011;137;48.578;9.180;2022-10-16T09:23:53;2.80;;;1.33;;
305;SDS011;137;48.578;9.180;2022-10-16T09:26:23;3.97;;;1.67;;
305;SDS011;137;48.578;9.180;2022-10-16T09:28:51;2.00;;;1.40;;
305;SDS011;137;48.578;9.180;2022-10-16T09:31:19;3.93;;;1.70;;
305;SDS011;137;48.578;9.180;2022-10-16T09:33:49;4.20;;;1.23;;
305;SDS011;137;48.578;9.180;2022-10-16T09:36:21;1.50;;;1.40;;
305;SDS011;137;48.578;9.180;2022-10-16T09:39:00;2.67;;;1.60;;
305;SDS011;137;48.578;9.180;2022-10-16T09:41:28;4.60;;;1.30;;
305;SDS011;137;48.578;9.180;2022-10-16T09:43:56;3.73;;;1.50;;
305;SDS011;137;48.578;9.180;2022-10-16T09:46:25;2.27;;;1.60;;
305;SDS011;137;48.578;9.180;2022-10-16T09:48:55;3.50;;;1.30;;
305;SDS011;137;48.578;9.180;2022-10-16T09:51:24;2.83;;;1.37;;
305;SDS011;137;48.578;9.180;2022-10-16T09:53:56;4.00;;;1.73;;
305;SDS011;137;48.578;9.180;2022-10-16T09:56:25;1.80;;;1.30;;
305;SDS011;137;48.578;9.180;2022-10-16T09:58:53;2.53;;;1.30;;
305;SDS011;137;48.578;9.180;2022-10-16T10:01:22;4.13;;;1.20;;
305;SDS011;137;48.578;9.180;2022-10-16T10:03:55;1.80;;;1.30;;
305;SDS011;137;48.578;9.180;2022-10-16T10:06:27;3.07;;;1.20;;
305;SDS011;137;48.578;9.180;2022-10-16T10:08:56;3.10;;;1.50;;
305;SDS011;137;48.578;9.180;2022-10-16T10:11:39;2.90;;;1.10;;
305;SDS011;137;48.578;9.180;2022-10-16T10:14:21;2.60;;;1.67;;
305;SDS011;137;48.578;9.180;2022-10-16T10:16:50;4.47;;;1.50;;
305;SDS011;137;48.578;9.180;2022-10-16T10:19:20;1.93;;;1.40;;
305;SDS011;137;48.578;9.180;2022-10-16T10:21:48;3.67;;;1.40;;
305;SDS011;137;48.578;9.180;2022-10-16T10:24:17;2.67;;;1.37;;
305;SDS011;137;48.578;9.180;2022-10-16T10:26:49;2.50;;;1.43;;
305;SDS011;137;48.578;9.180;2022-10-16T10:29:31;5.67;;;1.30;;
305;SDS011;137;48.578;9.180;2022-10-16T10:32:10;2.67;;;1.43;;
305;SDS011;137;48.578;9.180;2022-10-16T10:34:55;1.70;;;1.40;;
305;SDS011;137;48.578;9.180;2022-10-16T10:37:37;3.73;;;1.73;;
305;SDS011;137;48.578;9.180;2022-10-16T10:40:30;1.47;;;1.20;;
305;SDS011;137;48.578;9.180;2022-10-16T10:43:04;1.80;;;1.23;;
305;SDS011;137;48.578;9.180;2022-10-16T10:45:41;1.53;;;1.40;;
305;SDS011;137;48.578;9.180;2022-10-16T10:48:18;3.77;;;1.20;;
305;SDS011;137;48.578;9.180;2022-10-16T10:50:52;3.20;;;1.63;;
305;SDS011;137;48.578;9.180;2022-10-16T10:53:31;3.70;;;1.50;;
305;SDS011;137;48.578;9.180;2022-10-16T10:56:14;1.83;;;1.17;;
305;SDS011;137;48.578;9.180;2022-10-16T11:01:44;3.97;;;1.17;;
305;SDS011;137;48.578;9.180;2022-10-16T11:04:24;3.50;;;1.33;;
305;SDS011;137;48.578;9.180;2022-10-16T11:07:05;2.50;;;1.33;;
305;SDS011;137;48.578;9.180;2022-10-16T11:09:40;1.67;;;1.10;;
305;SDS011;137;48.578;9.180;2022-10-16T11:12:11;3.87;;;1.50;;
305;SDS011;137;48.578;9.180;2022-10-16T11:14:42;2.80;;;1.13;;
305;SDS011;137;48.578;9.180;2022-10-16T11:17:15;3.30;;;1.20;;
305;SDS011;137;48.578;9.180;2022-10-16T11:19:51;2.83;;;1.33;;
305;SDS011;137;48.578;9.180;2022-10-16T11:22:24;1.70;;;1.20;;
305;SDS011;137;48.578;9.180;2022-10-16T11:24:58;1.30;;;1.10;;
305;SDS011;137;48.578;9.180;2022-10-16T11:27:33;3.10;;;1.40;;
305;SDS011;137;48.578;9.180;2022-10-16T11:30:04;1.40;;;1.20;;
305;SDS011;137;48.578;9.180;2022-10-16T11:32:43;2.43;;;1.00;;
305;SDS011;137;48.578;9.180;2022-10-16T11:35:22;1.80;;;1.53;;
305;SDS011;137;48.578;9.180;2022-10-16T11:37:59;2.40;;;1.13;;
305;SDS011;137;48.578;9.180;2022-10-16T11:40:33;1.80;;;1.07;;
305;SDS011;137;48.578;9.180;2022-10-16T11:43:08;3.70;;;1.07;;
305;SDS011;137;48.578;9.180;2022-10-16T11:45:42;2.00;;;1.20;;
305;SDS011;137;48.578;9.180;2022-10-16T11:48:15;2.60;;;1.10;;
305;SDS011;137;48.578;9.180;2022-10-16T11:50:50;1.20;;;1.00;;
305;SDS011;137;48.578;9.180;2022-10-16T11:53:23;2.37;;;1.77;;
305;SDS011;137;48.578;9.180;2022-10-16T11:56:01;1.70;;;1.00;;
305;SDS011;137;48.578;9.180;2022-10-16T11:58:30;2.80;;;1.20;;
305;SDS011;137;48.578;9.180;2022-10-16T12:01:02;2.23;;;1.10;;
305;SDS011;137;48.578;9.180;2022-10-16T12:03:42;1.85;;;1.10;;
305;SDS011;137;48.578;9.180;2022-10-16T12:06:17;3.60;;;1.40;;
305;SDS011;137;48.578;9.180;2022-10-16T12:08:52;1.73;;;1.00;;
305;SDS011;137;48.578;9.180;2022-10-16T12:11:30;1.47;;;1.17;;
305;SDS011;137;48.578;9.180;2022-10-16T12:14:04;1.30;;;1.10;;
305;SDS011;137;48.578;9.180;2022-10-16T12:16:51;1.83;;;1.20;;
305;SDS011;137;48.578;9.180;2022-10-16T12:19:20;1.50;;;1.20;;
305;SDS011;137;48.578;9.180;2022-10-16T12:21:48;2.90;;;1.13;;
305;SDS011;137;48.578;9.180;2022-10-16T12:24:24;4.63;;;1.40;;
305;SDS011;137;48.578;9.180;2022-10-16T12:26:57;2.77;;;1.20;;
305;SDS011;137;48.578;9.180;2022-10-16T12:29:28;1.30;;;1.20;;
305;SDS011;137;48.578;9.180;2022-10-16T12:32:00;2.47;;;1.30;;
305;SDS011;137;48.578;9.180;2022-10-16T12:34:29;1.50;;;1.37;;
305;SDS011;137;48.578;9.180;2022-10-16T12:37:13;2.27;;;1.17;;
305;SDS011;137;48.578;9.180;2022-10-16T12:39:46;1.80;;;1.20;;
305;SDS011;137;48.578;9.180;2022-10-16T12:42:30;2.90;;;1.40;;
305;SDS011;137;48.578;9.180;2022-10-16T12:44:59;3.63;;;1.30;;
305;SDS011;137;48.578;9.180;2022-10-16T12:47:36;1.80;;;1.30;;
305;SDS011;137;48.578;9.180;2022-10-16T12:52:59;1.90;;;1.00;;
305;SDS011;137;48.578;9.180;2022-10-16T12:55:30;2.17;;;1.17;;
305;SDS011;137;48.578;9.180;2022-10-16T12:58:09;3.03;;;1.43;;
305;SDS011;137;48.578;9.180;2022-10-16T13:00:58;3.43;;;1.20;;
305;SDS011;137;48.578;9.180;2022-10-16T13:03:42;1.60;;;1.50;;
305;SDS011;137;48.578;9.180;2022-10-16T13:06:20;2.17;;;1.30;;
305;SDS011;137;48.578;9.180;2022-10-16T13:09:10;4.30;;;1.73;;
305;SDS011;137;48.578;9.180;2022-10-16T13:11:51;1.80;;;1.10;;
305;SDS011;137;48.578;9.180;2022-10-16T13:14:36;2.53;;;1.30;;
305;SDS011;137;48.578;9.180;2022-10-16T13:17:16;8.63;;;1.43;;
305;SDS011;137;48.578;9.180;2022-10-16T13:19:51;4.90;;;1.27;;
305;SDS011;137;48.578;9.180;2022-10-16T13:22:26;2.70;;;1.50;;
305;SDS011;137;48.578;9.180;2022-10-16T13:25:02;2.33;;;1.43;;
305;SDS011;137;48.578;9.180;2022-10-16T13:27:43;3.77;;;1.30;;
305;SDS011;137;48.578;9.180;2022-10-16T13:30:20;2.67;;;1.40;;
305;SDS011;137;48.578;9.180;2022-10-16T13:32:50;2.10;;;1.63;;
305;SDS011;137;48.578;9.180;2022-10-16T13:35:25;4.10;;;1.43;;
305;SDS011;137;48.578;9.180;2022-10-16T13:38:02;2.47;;;1.67;;
305;SDS011;137;48.578;9.180;2022-10-16T13:40:47;1.60;;;1.40;;
305;SDS011;137;48.578;9.180;2022-10-16T13:43:20;2.30;;;1.70;;
305;SDS011;137;48.578;9.180;2022-10-16T13:45:57;1.63;;;1.40;;
305;SDS011;137;48.578;9.180;2022-10-16T13:48:25;3.70;;;1.27;;
305;SDS011;137;48.578;9.180;2022-10-16T13:51:03;2.10;;;1.10;;
305;SDS011;137;48.578;9.180;2022-10-16T13:53:32;1.83;;;1.30;;
305;SDS011;137;48.578;9.180;2022-10-16T13:56:01;3.43;;;1.47;;
305;SDS011;137;48.578;9.180;2022-10-16T13:58:31;4.33;;;1.30;;
305;SDS011;137;48.578;9.180;2022-10-16T14:00:59;2.20;;;1.40;;
305;SDS011;137;48.578;9.180;2022-10-16T14:03:27;2.27;;;1.70;;
305;SDS011;137;48.578;9.180;2022-10-16T14:05:56;1.77;;;1.23;;
305;SDS011;137;48.578;9.180;2022-10-16T14:08:25;1.60;;;1.20;;
305;SDS011;137;48.578;9.180;2022-10-16T14:10:54;1.87;;;1.20;;
305;SDS011;137;48.578;9.180;2022-10-16T14:13:26;1.70;;;1.10;;
305;SDS011;137;48.578;9.180;2022-10-16T14:16:02;6.77;;;1.63;;
305;SDS011;137;48.578;9.180;2022-10-16T14:18:34;3.30;;;1.30;;
305;SDS011;137;48.578;9.180;2022-10-16T14:21:03;1.40;;;1.30;;
305;SDS011;137;48.578;9.180;2022-10-16T14:23:32;2.80;;;1.63;;
305;SDS011;137;48.578;9.180;2022-10-16T14:26:06;1.80;;;1.50;;
305;SDS011;137;48.578;9.180;2022-10-16T14:28:44;1.87;;;1.50;;
305;SDS011;137;48.578;9.180;2022-10-16T14:31:24;3.70;;;1.60;;
305;SDS011;137;48.578;9.180;2022-10-16T14:33:53;2.30;;;1.50;;
305;SDS011;137;48.578;9.180;2022-10-16T14:36:20;1.30;;;1.20;;
305;SDS011;137;48.578;9.180;2022-10-16T14:38:48;4.40;;;1.47;;
305;SDS011;137;48.578;9.180;2022-10-16T14:41:23;1.67;;;1.40;;
305;SDS011;137;48.578;9.180;2022-10-16T14:43:52;1.80;;;1.50;;
305;SDS011;137;48.578;9.180;2022-10-16T14:46:21;1.60;;;1.43;;
305;SDS011;137;48.578;9.180;2022-10-16T14:48:55;1.70;;;1.50;;
305;SDS011;137;48.578;9.180;2022-10-16T14:51:26;2.90;;;1.93;;
305;SDS011;137;48.578;9.180;2022-10-16T14:53:53;1.53;;;1.37;;
305;SDS011;137;48.578;9.180;2022-10-16T14:56:20;2.78;;;1.70;;
305;SDS011;137;48.578;9.180;2022-10-16T14:58:49;2.13;;;1.60;;
305;SDS011;137;48.578;9.180;2022-10-16T15:01:18;2.53;;;1.83;;
305;SDS011;137;48.578;9.180;2022-10-16T15:03:45;1.40;;;1.20;;
305;SDS011;137;48.578;9.180;2022-10-16T15:06:13;3.90;;;1.90;;
305;SDS011;137;48.578;9.180;2022-10-16T15:08:41;1.40;;;1.23;;
305;SDS011;137;48.578;9.180;2022-10-16T15:11:08;1.77;;;1.53;;
305;SDS011;137;48.578;9.180;2022-10-16T15:13:38;1.50;;;1.30;;
305;SDS011;137;48.578;9.180;2022-10-16T15:16:08;1.87;;;1.40;;
305;SDS011;137;48.578;9.180;2022-10-16T15:18:37;1.80;;;1.63;;
305;SDS011;137;48.578;9.180;2022-10-16T15:21:04;2.53;;;1.67;;
305;SDS011;137;48.578;9.180;2022-10-16T15:23:31;2.67;;;1.57;;
305;SDS011;137;48.578;9.180;2022-10-16T15:25:57;1.97;;;1.40;;
305;SDS011;137;48.578;9.180;2022-10-16T15:28:24;3.90;;;1.53;;
305;SDS011;137;48.578;9.180;2022-10-16T15:30:52;1.97;;;1.43;;
305;SDS011;137;48.578;9.180;2022-10-16T15:33:21;2.80;;;1.80;;
305;SDS011;137;48.578;9.180;2022-10-16T15:35:52;1.97;;;1.60;;
305;SDS011;137;48.578;9.180;2022-10-16T15:38:19;5.40;;;2.00;;
305;SDS011;137;48.578;9.180;2022-10-16T15:40:48;3.33;;;1.97;;
305;SDS011;137;48.578;9.180;2022-10-16T15:43:15;5.23;;;3.17;;
305;SDS011;137;48.578;9.180;2022-10-16T15:45:42;4.73;;;2.33;;
305;SDS011;137;48.578;9.180;2022-10-16T15:48:10;2.63;;;1.60;;
305;SDS011;137;48.578;9.180;2022-10-16T15:50:39;1.90;;;1.60;;
305;SDS011;137;48.578;9.180;2022-10-16T15:53:07;2.77;;;1.63;;
305;SDS011;137;48.578;9.180;2022-10-16T15:55:34;3.50;;;2.37;;
305;SDS011;137;48.578;9.180;2022-10-16T15:58:03;3.03;;;1.87;;
305;SDS011;137;48.578;9.180;2022-10-16T16:00:30;3.53;;;1.80;;
305;SDS011;137;48.578;9.180;2022-10-16T16:02:57;4.50;;;2.37;;
305;SDS011;137;48.578;9.180;2022-10-16T16:05:24;3.43;;;2.17;;
305;SDS011;137;48.578;9.180;2022-10-16T16:07:53;2.83;;;2.10;;
305;SDS011;137;48.578;9.180;2022-10-16T16:10:20;3.20;;;2.10;;